Time;durP1;ratioP1;P1;durP2;ratioP2;P2;SDS_P1;SDS_P2;PMS_P1;PMS_P2;Temp;Humidity;BMP_temperature;BMP_pressure;BME280_temperature;BME280_humidity;BME280_pressure;Samples;Min_cycle;Max_cycle;Signal;HPM_P1;HPM_P2
2022/11/11 00:01:14;;;;;;;22.13;13.97;;;10.80;99.90;;;;;;4997450;28;20171;-69
2022/11/11 00:03:41;;;;;;;21.93;13.50;;;10.80;99.90;;;;;;4997370;28;20186;-68
2022/11/11 00:06:15;;;;;;;20.77;14.13;;;10.80;99.90;;;;;;4997347;28;20245;-68
2022/11/11 00:08:42;;;;;;;18.87;12.53;;;10.80;99.90;;;;;;4997074;28;20255;-69
2022/11/11 00:11:10;;;;;;;18.87;12.67;;;10.80;99.90;;;;;;4997288;28;20178;-69
2022/11/11 00:13:37;;;;;;;17.60;12.27;;;10.70;99.90;;;;;;4997171;28;20164;-70
2022/11/11 00:16:17;;;;;;;16.93;12.93;;;10.70;99.90;;;;;;4997244;28;20659;-70
2022/11/11 00:26:51;;;;;;;23.10;14.17;;;10.60;99.90;;;;;;4997101;28;20571;-68
2022/11/11 00:29:20;;;;;;;21.63;14.70;;;10.60;99.90;;;;;;4996914;28;20254;-69
2022/11/11 00:34:29;;;;;;;21.73;13.57;;;10.70;99.90;;;;;;4996661;28;20330;-69
2022/11/11 00:36:58;;;;;;;17.70;12.37;;;10.70;99.90;;;;;;4996853;28;20199;-68
2022/11/11 00:39:23;;;;;;;16.07;12.60;;;10.70;99.90;;;;;;4996524;28;20198;-68
2022/11/11 00:41:49;;;;;;;18.53;12.33;;;10.70;99.90;;;;;;4996743;28;20580;-69
2022/11/11 00:44:14;;;;;;;18.13;11.97;;;10.80;99.90;;;;;;4996597;28;20535;-68
2022/11/11 00:52:08;;;;;;;15.57;9.63;;;10.80;99.90;;;;;;4995559;28;20182;-68
2022/11/11 00:54:37;;;;;;;14.13;11.07;;;10.70;99.90;;;;;;4996400;28;20171;-68
2022/11/11 00:57:02;;;;;;;16.37;11.00;;;10.60;99.90;;;;;;4996450;28;20226;-69
2022/11/11 00:59:28;;;;;;;17.27;10.63;;;10.70;99.90;;;;;;4994960;28;20191;-68
2022/11/11 01:01:53;;;;;;;14.53;10.63;;;10.70;99.90;;;;;;4996523;28;20175;-68
2022/11/11 01:04:19;;;;;;;14.10;10.13;;;10.70;99.90;;;;;;4996217;28;20554;-68
2022/11/11 01:06:44;;;;;;;14.30;9.33;;;10.70;99.90;;;;;;4996049;28;20301;-69
2022/11/11 01:09:10;;;;;;;12.57;10.00;;;10.60;99.90;;;;;;4996040;28;20187;-69
2022/11/11 01:11:36;;;;;;;14.07;9.60;;;10.60;99.90;;;;;;4996063;28;20171;-69
2022/11/11 01:14:04;;;;;;;10.43;8.80;;;10.60;99.90;;;;;;4996005;28;20233;-69
2022/11/11 01:16:29;;;;;;;16.20;10.10;;;10.50;99.90;;;;;;4996058;28;20171;-69
2022/11/11 01:18:55;;;;;;;18.77;10.27;;;10.60;99.90;;;;;;4996144;28;20170;-69
2022/11/11 01:21:24;;;;;;;15.97;9.30;;;10.60;99.90;;;;;;4995753;28;20617;-68
2022/11/11 01:23:52;;;;;;;12.07;8.63;;;10.50;99.90;;;;;;4996003;28;20175;-69
2022/11/11 01:26:23;;;;;;;13.50;9.63;;;10.40;99.90;;;;;;4995863;28;20203;-69
2022/11/11 01:28:54;;;;;;;15.60;10.67;;;10.50;99.90;;;;;;4995693;28;20687;-69
2022/11/11 01:31:21;;;;;;;16.03;11.83;;;10.50;99.90;;;;;;4995811;28;20184;-69
2022/11/11 01:33:47;;;;;;;20.97;12.63;;;10.60;99.90;;;;;;4995363;28;20223;-69
2022/11/11 01:36:18;;;;;;;23.83;13.63;;;10.50;99.90;;;;;;4995562;28;20179;-68
2022/11/11 01:38:49;;;;;;;20.40;13.50;;;10.60;99.90;;;;;;4995829;28;20179;-68
2022/11/11 01:41:35;;;;;;;21.80;13.37;;;10.60;99.90;;;;;;4995608;28;20182;-68
2022/11/11 01:44:10;;;;;;;20.17;12.97;;;10.80;99.90;;;;;;4995653;28;20187;-69
2022/11/11 01:46:41;;;;;;;20.90;14.07;;;10.70;99.90;;;;;;4995541;28;20214;-68
2022/11/11 01:49:21;;;;;;;19.53;12.90;;;10.70;99.90;;;;;;4995509;28;20199;-68
2022/11/11 01:51:50;;;;;;;16.30;12.33;;;10.60;99.90;;;;;;4993855;28;20233;-68
2022/11/11 01:54:42;;;;;;;16.40;11.93;;;10.60;99.90;;;;;;4995381;28;20640;-68
2022/11/11 01:57:28;;;;;;;16.27;12.30;;;10.50;99.90;;;;;;4995121;28;20190;-68
2022/11/11 02:00:00;;;;;;;16.83;12.80;;;10.50;99.90;;;;;;4995271;28;20650;-67
2022/11/11 02:02:46;;;;;;;19.83;13.07;;;10.40;99.90;;;;;;4993983;28;20234;-68
2022/11/11 02:08:02;;;;;;;20.20;13.23;;;10.40;99.90;;;;;;4995622;28;20253;-68
2022/11/11 02:10:31;;;;;;;19.47;13.13;;;10.40;99.90;;;;;;4994982;28;20203;-68
2022/11/11 02:15:41;;;;;;;19.33;12.80;;;10.50;99.90;;;;;;4995524;28;20658;-68
2022/11/11 02:18:06;;;;;;;20.33;12.80;;;10.50;99.90;;;;;;4995090;28;20211;-68
2022/11/11 02:20:43;;;;;;;23.47;14.37;;;10.50;99.90;;;;;;4994550;28;20306;-68
2022/11/11 02:23:14;;;;;;;20.77;14.47;;;10.60;99.90;;;;;;4994709;28;20241;-69
2022/11/11 02:25:44;;;;;;;21.50;14.50;;;10.60;99.90;;;;;;4994833;28;20214;-68
2022/11/11 02:28:12;;;;;;;20.80;16.00;;;10.60;99.90;;;;;;4994853;28;20163;-68
2022/11/11 02:30:38;;;;;;;21.43;15.80;;;10.60;99.90;;;;;;4994835;28;20179;-68
2022/11/11 02:33:06;;;;;;;23.13;16.03;;;10.60;99.90;;;;;;4994817;28;20338;-68
2022/11/11 02:35:35;;;;;;;23.40;16.23;;;10.50;99.90;;;;;;4992760;28;20306;-69
2022/11/11 02:38:07;;;;;;;24.50;15.43;;;10.60;99.90;;;;;;4994596;28;20173;-69
2022/11/11 02:43:26;;;;;;;19.57;13.80;;;10.50;99.90;;;;;;4994694;28;20174;-68
2022/11/11 02:45:51;;;;;;;20.87;14.60;;;10.50;99.90;;;;;;4994353;28;20205;-68
2022/11/11 02:48:17;;;;;;;20.00;13.80;;;10.50;99.90;;;;;;4994154;28;20167;-69
2022/11/11 02:50:43;;;;;;;25.13;14.47;;;10.50;99.90;;;;;;4994514;28;20184;-68
2022/11/11 02:53:08;;;;;;;15.83;12.00;;;10.50;99.90;;;;;;4993090;28;20175;-67
2022/11/11 02:55:34;;;;;;;21.40;12.40;;;10.40;99.90;;;;;;4994448;28;20206;-68
2022/11/11 02:57:59;;;;;;;17.37;11.73;;;10.40;99.90;;;;;;4994349;28;20175;-67
2022/11/11 03:00:25;;;;;;;19.13;10.67;;;10.40;99.90;;;;;;4994146;28;20171;-68
2022/11/11 03:02:51;;;;;;;13.87;10.57;;;10.40;99.90;;;;;;4992745;28;20643;-68
2022/11/11 03:05:17;;;;;;;15.97;10.80;;;10.40;99.90;;;;;;4994183;28;20655;-67
2022/11/11 03:07:42;;;;;;;20.30;11.63;;;10.40;99.90;;;;;;4994317;28;20168;-68
2022/11/11 03:10:08;;;;;;;15.40;11.60;;;10.40;99.90;;;;;;4993930;28;20195;-68
2022/11/11 03:12:34;;;;;;;17.97;12.10;;;10.30;99.90;;;;;;4994104;28;20209;-68
2022/11/11 03:14:59;;;;;;;19.80;11.40;;;10.20;99.90;;;;;;4993587;28;20163;-67
2022/11/11 03:17:40;;;;;;;15.17;11.23;;;10.20;99.90;;;;;;4993971;28;20532;-68
2022/11/11 03:23:04;;;;;;;15.23;11.23;;;10.20;99.90;;;;;;4994219;28;20185;-67
2022/11/11 03:25:39;;;;;;;15.13;11.40;;;10.40;99.90;;;;;;4993951;28;20245;-67
2022/11/11 03:28:08;;;;;;;15.30;10.90;;;10.30;99.90;;;;;;4994076;28;20167;-68
2022/11/11 03:30:35;;;;;;;16.80;11.30;;;10.30;99.90;;;;;;4993946;28;20175;-68
2022/11/11 03:33:01;;;;;;;15.23;11.10;;;10.30;99.90;;;;;;4993421;28;20194;-68
2022/11/11 03:35:27;;;;;;;15.50;11.17;;;10.40;99.90;;;;;;4993735;28;20289;-68
2022/11/11 03:40:42;;;;;;;13.87;10.40;;;10.40;99.90;;;;;;4993972;28;20249;-69
2022/11/11 03:43:08;;;;;;;13.03;10.47;;;10.40;99.90;;;;;;4993718;28;20167;-68
2022/11/11 03:45:33;;;;;;;14.87;10.90;;;10.50;99.90;;;;;;4993764;28;20215;-68
2022/11/11 03:47:59;;;;;;;13.67;10.57;;;10.50;99.90;;;;;;4993446;28;20167;-69
2022/11/11 03:50:24;;;;;;;15.17;10.47;;;10.50;99.90;;;;;;4993610;28;20167;-68
2022/11/11 03:52:50;;;;;;;14.27;10.47;;;10.50;99.90;;;;;;4993712;28;20175;-67
2022/11/11 03:55:15;;;;;;;14.10;10.37;;;10.50;99.90;;;;;;4993681;28;20167;-68
2022/11/11 03:57:44;;;;;;;12.13;10.80;;;10.40;99.90;;;;;;4993687;28;20675;-68
2022/11/11 04:00:11;;;;;;;14.27;10.73;;;10.50;99.90;;;;;;4993662;28;20255;-68
2022/11/11 04:10:49;;;;;;;13.57;9.50;;;10.30;99.90;;;;;;4993407;28;20538;-67
2022/11/11 04:16:07;;;;;;;12.93;9.30;;;10.20;99.90;;;;;;4993128;28;20597;-67
2022/11/11 04:25:47;;;;;;;13.30;9.53;;;10.30;99.90;;;;;;4993705;28;20182;-68
2022/11/11 04:26:50;;;;;;;16.27;9.07;;;10.30;99.90;;;;;;4994236;28;20313;-68
2022/11/11 04:29:27;;;;;;;13.67;9.13;;;10.30;99.90;;;;;;4996603;28;20697;-68
2022/11/11 04:34:57;;;;;;;11.43;9.37;;;10.20;99.90;;;;;;4996906;28;20230;-69
2022/11/11 04:37:24;;;;;;;16.10;9.63;;;10.20;99.90;;;;;;4996947;28;20182;-67
2022/11/11 04:42:35;;;;;;;12.37;9.17;;;10.10;99.90;;;;;;4996682;28;20318;-68
2022/11/11 04:48:07;;;;;;;15.90;10.20;;;10.10;99.90;;;;;;4996733;28;20322;-67
2022/11/11 04:50:40;;;;;;;15.63;10.07;;;10.10;99.90;;;;;;4996434;28;20672;-68
2022/11/11 04:53:09;;;;;;;16.17;10.53;;;10.10;99.90;;;;;;4995124;28;20175;-68
2022/11/11 04:58:21;;;;;;;11.83;9.50;;;10.10;99.90;;;;;;4996078;28;20225;-68
2022/11/11 05:00:47;;;;;;;12.70;9.23;;;10.20;99.90;;;;;;4996347;28;20638;-68
2022/11/11 05:03:23;;;;;;;12.43;9.30;;;10.10;99.90;;;;;;4995636;28;20203;-67
2022/11/11 05:08:57;;;;;;;14.27;8.60;;;10.00;99.90;;;;;;4996738;28;20194;-67
2022/11/11 05:11:34;;;;;;;16.33;8.57;;;9.90;99.90;;;;;;4996154;28;20172;-67
2022/11/11 05:22:27;;;;;;;12.00;8.63;;;9.80;99.90;;;;;;4995928;28;20235;-68
2022/11/11 05:27:38;;;;;;;12.00;8.90;;;9.80;99.90;;;;;;4995440;28;20333;-67
2022/11/11 05:30:05;;;;;;;12.87;8.97;;;9.80;99.90;;;;;;4995928;28;20616;-68
2022/11/11 05:32:31;;;;;;;13.37;8.47;;;9.70;99.90;;;;;;4994425;28;20662;-68
2022/11/11 05:34:56;;;;;;;10.47;8.43;;;9.70;99.90;;;;;;4995023;28;20231;-68
2022/11/11 05:37:22;;;;;;;14.23;9.50;;;9.80;99.90;;;;;;4995082;28;20642;-69
2022/11/11 05:39:48;;;;;;;13.30;9.20;;;9.80;99.90;;;;;;4995475;28;20259;-68
2022/11/11 05:42:17;;;;;;;13.00;9.80;;;9.80;99.90;;;;;;4995259;28;20175;-67
2022/11/11 05:44:43;;;;;;;13.33;10.40;;;9.80;99.90;;;;;;4995354;28;20628;-68
2022/11/11 05:47:08;;;;;;;13.77;10.17;;;9.70;99.90;;;;;;4995322;28;20207;-68
2022/11/11 05:49:34;;;;;;;12.63;9.97;;;9.70;99.90;;;;;;4995459;28;20167;-69
2022/11/11 05:52:00;;;;;;;12.37;10.27;;;9.70;99.90;;;;;;4995262;28;20175;-68
2022/11/11 05:54:25;;;;;;;13.43;10.17;;;9.70;99.90;;;;;;4995127;28;20242;-67
2022/11/11 05:56:51;;;;;;;15.50;10.63;;;9.70;99.90;;;;;;4994771;28;20179;-67
2022/11/11 05:59:17;;;;;;;14.37;10.37;;;9.70;99.90;;;;;;4995116;28;20212;-68
2022/11/11 06:01:43;;;;;;;17.10;10.70;;;9.60;99.90;;;;;;4994828;28;20164;-68
2022/11/11 06:04:09;;;;;;;11.77;10.10;;;9.60;99.90;;;;;;4995167;28;20202;-68
2022/11/11 06:06:36;;;;;;;17.50;11.30;;;9.60;99.90;;;;;;4994934;28;20242;-67
2022/11/11 06:09:03;;;;;;;15.27;12.37;;;9.70;99.90;;;;;;4994725;28;20183;-67
2022/11/11 06:11:29;;;;;;;18.23;12.67;;;9.80;99.90;;;;;;4994762;28;20164;-67
2022/11/11 06:13:55;;;;;;;14.50;11.43;;;9.70;99.90;;;;;;4994755;28;20172;-68
2022/11/11 06:16:22;;;;;;;16.83;11.70;;;9.70;99.90;;;;;;4994829;28;20229;-68
2022/11/11 06:18:48;;;;;;;19.33;11.83;;;9.80;99.90;;;;;;4994822;28;20222;-68
2022/11/11 06:21:14;;;;;;;15.40;11.03;;;9.80;99.90;;;;;;4993294;28;20650;-68
2022/11/11 06:23:39;;;;;;;14.73;10.73;;;9.80;99.90;;;;;;4994520;28;20183;-67
2022/11/11 06:26:11;;;;;;;16.20;11.50;;;9.80;99.90;;;;;;4994160;28;20218;-69
2022/11/11 06:28:45;;;;;;;17.33;11.00;;;9.70;99.90;;;;;;4994534;28;20164;-67
2022/11/11 06:31:14;;;;;;;16.70;11.97;;;9.70;99.90;;;;;;4993226;28;20175;-68
2022/11/11 06:33:41;;;;;;;13.90;11.40;;;9.70;99.90;;;;;;4994199;28;20239;-68
2022/11/11 06:36:07;;;;;;;16.33;11.97;;;9.70;99.90;;;;;;4994419;28;20230;-68
2022/11/11 06:38:33;;;;;;;19.23;11.97;;;9.70;99.90;;;;;;4994350;28;20258;-68
2022/11/11 06:40:59;;;;;;;17.43;12.33;;;9.70;99.90;;;;;;4994086;28;20255;-68
2022/11/11 06:43:25;;;;;;;15.80;11.33;;;9.70;99.90;;;;;;4994276;28;20175;-69
2022/11/11 06:45:52;;;;;;;17.00;11.87;;;9.70;99.90;;;;;;4994176;28;20203;-69
2022/11/11 06:48:17;;;;;;;15.67;11.70;;;9.70;99.90;;;;;;4993769;28;20274;-67
2022/11/11 06:50:43;;;;;;;14.67;11.10;;;9.70;99.90;;;;;;4993586;28;20242;-68
2022/11/11 06:53:11;;;;;;;14.27;10.80;;;9.70;99.90;;;;;;4994075;28;20649;-68
2022/11/11 06:55:37;;;;;;;19.07;11.63;;;9.60;99.90;;;;;;4991842;28;20221;-68
2022/11/11 06:58:07;;;;;;;18.10;11.17;;;9.70;99.90;;;;;;4993669;28;20179;-67
2022/11/11 07:00:34;;;;;;;18.77;11.73;;;9.70;99.90;;;;;;4993966;28;20508;-67
2022/11/11 07:03:01;;;;;;;15.80;10.80;;;9.70;99.90;;;;;;4993940;28;20258;-68
2022/11/11 07:05:27;;;;;;;15.63;11.70;;;9.70;99.90;;;;;;4994219;28;20211;-67
2022/11/11 07:07:53;;;;;;;16.70;10.87;;;9.70;99.90;;;;;;4993756;28;20179;-69
2022/11/11 07:10:19;;;;;;;15.47;11.50;;;9.70;99.90;;;;;;4993178;28;20175;-68
2022/11/11 07:12:47;;;;;;;18.10;11.50;;;9.80;99.90;;;;;;4993726;28;20258;-67
2022/11/11 07:15:13;;;;;;;14.73;11.73;;;9.80;99.90;;;;;;4993856;28;20258;-67
2022/11/11 07:17:39;;;;;;;19.77;11.73;;;9.70;99.90;;;;;;4993946;28;20258;-68
2022/11/11 07:20:05;;;;;;;19.23;12.13;;;9.70;99.90;;;;;;4993297;28;20167;-68
2022/11/11 07:22:34;;;;;;;17.23;11.67;;;9.70;99.90;;;;;;4993903;28;20190;-69
2022/11/11 07:24:59;;;;;;;17.47;11.67;;;9.80;99.90;;;;;;4993110;28;20662;-69
2022/11/11 07:27:25;;;;;;;15.10;11.00;;;9.70;99.90;;;;;;4993376;28;20203;-69
2022/11/11 07:29:51;;;;;;;16.87;11.60;;;9.70;99.90;;;;;;4993934;28;20168;-69
2022/11/11 07:32:16;;;;;;;16.60;11.10;;;9.70;99.90;;;;;;4993687;28;20168;-68
2022/11/11 07:34:43;;;;;;;18.40;12.73;;;9.70;99.90;;;;;;4993237;28;20631;-69
2022/11/11 07:37:09;;;;;;;15.37;11.63;;;9.70;99.90;;;;;;4993562;28;20179;-68
2022/11/11 07:39:35;;;;;;;16.67;11.87;;;9.70;99.90;;;;;;4992893;28;20664;-68
2022/11/11 07:42:00;;;;;;;14.93;11.80;;;9.70;99.90;;;;;;4993580;28;20167;-68
2022/11/11 07:44:26;;;;;;;17.20;12.57;;;9.80;99.90;;;;;;4993269;28;20171;-67
2022/11/11 07:46:55;;;;;;;17.03;12.30;;;9.80;99.90;;;;;;4992926;28;20215;-68
2022/11/11 07:49:20;;;;;;;19.30;12.13;;;9.90;99.90;;;;;;4993939;28;20178;-68
2022/11/11 07:51:46;;;;;;;15.17;11.87;;;10.00;99.90;;;;;;4992881;28;20529;-69
2022/11/11 07:54:12;;;;;;;17.30;11.87;;;10.10;99.90;;;;;;4992724;28;20174;-68
2022/11/11 07:56:37;;;;;;;16.03;11.37;;;10.00;99.90;;;;;;4993114;28;20167;-68
2022/11/11 07:59:03;;;;;;;17.23;12.27;;;10.00;99.90;;;;;;4993212;28;20169;-68
2022/11/11 08:01:28;;;;;;;16.50;12.13;;;10.00;99.90;;;;;;4995016;28;20174;-68
2022/11/11 08:03:54;;;;;;;15.10;11.53;;;10.10;99.90;;;;;;4997340;28;20172;-68
2022/11/11 08:06:21;;;;;;;15.53;11.47;;;10.30;99.90;;;;;;4995595;28;20234;-69
2022/11/11 08:08:47;;;;;;;14.83;10.63;;;10.50;99.90;;;;;;4996238;28;20195;-69
2022/11/11 08:11:13;;;;;;;12.43;9.63;;;10.70;99.90;;;;;;4996659;28;20202;-68
2022/11/11 08:13:39;;;;;;;11.03;8.90;;;11.00;99.90;;;;;;4997023;28;20198;-68
2022/11/11 08:16:13;;;;;;;13.83;9.60;;;11.10;99.90;;;;;;4995660;28;20209;-68
2022/11/11 08:18:40;;;;;;;12.17;8.80;;;11.30;99.90;;;;;;4996835;28;20174;-68
2022/11/11 08:21:06;;;;;;;11.37;8.53;;;11.40;99.90;;;;;;4996786;28;20179;-69
2022/11/11 08:23:32;;;;;;;11.97;8.67;;;11.70;99.90;;;;;;4996065;28;20245;-68
2022/11/11 08:26:08;;;;;;;12.17;8.63;;;12.00;99.90;;;;;;4996614;28;20253;-69
2022/11/11 08:28:36;;;;;;;9.90;7.50;;;12.10;99.90;;;;;;4996900;28;20182;-68
2022/11/11 08:31:02;;;;;;;10.97;7.40;;;12.30;99.90;;;;;;4996901;28;20187;-68
2022/11/11 08:33:28;;;;;;;12.33;7.27;;;12.60;99.90;;;;;;4996329;28;20742;-69
2022/11/11 08:35:57;;;;;;;9.20;7.30;;;13.00;99.90;;;;;;4996335;28;20178;-69
2022/11/11 08:38:23;;;;;;;8.93;6.93;;;13.40;99.90;;;;;;4996676;28;20662;-69
2022/11/11 08:40:51;;;;;;;8.73;6.80;;;13.80;99.90;;;;;;4996439;28;20293;-69
2022/11/11 08:43:17;;;;;;;10.13;7.07;;;14.30;99.90;;;;;;4996084;28;20674;-69
2022/11/11 08:45:42;;;;;;;6.70;6.10;;;14.50;99.90;;;;;;4996320;28;20278;-70
2022/11/11 08:48:11;;;;;;;9.93;6.70;;;15.00;99.90;;;;;;4996496;28;20627;-70
2022/11/11 08:50:38;;;;;;;7.63;6.83;;;15.30;99.90;;;;;;4996235;28;20202;-70
2022/11/11 08:53:06;;;;;;;6.93;6.23;;;15.20;99.90;;;;;;4996260;28;20218;-70
2022/11/11 08:55:33;;;;;;;11.10;6.40;;;14.80;99.90;;;;;;4996199;28;20171;-70
2022/11/11 08:58:00;;;;;;;11.87;6.43;;;15.40;99.90;;;;;;4996119;28;20217;-70
2022/11/11 09:00:27;;;;;;;8.63;6.57;;;15.60;99.90;;;;;;4995785;28;20171;-70
2022/11/11 09:02:52;;;;;;;9.67;6.43;;;16.20;99.90;;;;;;4995795;28;20631;-71
2022/11/11 09:05:18;;;;;;;6.68;6.07;;;16.90;99.90;;;;;;4995667;28;20187;-70
2022/11/11 09:07:47;;;;;;;7.38;6.28;;;17.30;99.90;;;;;;4995860;28;20639;-70
2022/11/11 09:10:15;;;;;;;6.95;5.90;;;17.20;99.90;;;;;;4995841;28;20686;-69
2022/11/11 09:12:41;;;;;;;8.32;5.90;;;17.50;99.90;;;;;;4994720;28;20171;-71
2022/11/11 09:15:06;;;;;;;6.10;5.55;;;17.90;99.90;;;;;;4995948;28;20627;-70
2022/11/11 09:17:32;;;;;;;5.55;5.05;;;18.10;99.90;;;;;;4994432;28;20175;-70
2022/11/11 09:19:57;;;;;;;6.32;5.57;;;18.10;99.90;;;;;;4995304;28;20650;-72
2022/11/11 09:22:23;;;;;;;5.80;5.30;;;18.70;99.50;;;;;;4996053;28;20549;-70
2022/11/11 09:24:49;;;;;;;5.50;5.00;;;19.20;98.40;;;;;;4994686;28;20175;-70
2022/11/11 09:27:17;;;;;;;6.55;5.55;;;20.00;97.40;;;;;;4995418;28;20207;-71
2022/11/11 09:29:43;;;;;;;5.90;5.40;;;20.10;96.60;;;;;;4995986;28;20199;-70
2022/11/11 09:32:09;;;;;;;4.80;4.40;;;19.60;96.00;;;;;;4995457;28;20203;-70
2022/11/11 09:34:34;;;;;;;6.85;5.22;;;20.30;95.40;;;;;;4993558;28;20253;-72
2022/11/11 09:37:00;;;;;;;7.57;5.15;;;20.40;95.00;;;;;;4994876;28;20575;-71
2022/11/11 09:39:25;;;;;;;5.07;4.72;;;20.20;94.60;;;;;;4995076;28;20639;-71
2022/11/11 09:42:32;;;;;;;5.40;4.90;;;20.40;94.40;;;;;;4995509;28;20209;-71
2022/11/11 09:45:34;;;;;;;5.10;4.80;;;20.50;94.20;;;;;;4973940;28;20180;-71
2022/11/11 09:48:14;;;;;;;4.80;4.40;;;21.10;93.50;;;;;;4973524;28;20199;-70
2022/11/11 09:50:41;;;;;;;4.95;4.55;;;20.60;93.10;;;;;;4973071;28;20172;-70
2022/11/11 09:53:29;;;;;;;5.25;4.85;;;20.60;92.80;;;;;;4973732;28;20269;-71
2022/11/11 09:56:11;;;;;;;5.05;4.65;;;20.50;93.80;;;;;;4973911;28;20322;-71
2022/11/11 09:58:47;;;;;;;4.55;4.25;;;21.00;92.70;;;;;;4973484;28;20774;-71
2022/11/11 10:01:20;;;;;;;5.20;4.38;;;20.40;93.70;;;;;;4973335;28;20315;-72
2022/11/11 10:03:57;;;;;;;4.65;3.97;;;20.70;93.60;;;;;;4973067;28;20311;-71
2022/11/11 10:06:30;;;;;;;5.57;4.25;;;19.80;94.50;;;;;;4973069;28;20215;-71
2022/11/11 10:09:05;;;;;;;4.32;3.90;;;20.60;94.00;;;;;;4973207;28;20219;-71
2022/11/11 10:11:33;;;;;;;4.53;4.13;;;20.40;92.50;;;;;;4973422;28;20263;-71
2022/11/11 10:13:59;;;;;;;4.20;3.80;;;20.10;93.20;;;;;;4972745;28;20202;-71
2022/11/11 10:16:42;;;;;;;7.60;4.20;;;20.80;93.30;;;;;;4973398;28;20659;-71
2022/11/11 10:19:32;;;;;;;3.85;3.65;;;21.70;91.20;;;;;;4972201;28;20172;-72
2022/11/11 10:22:01;;;;;;;4.68;4.20;;;22.10;89.80;;;;;;4994415;28;20171;-72
2022/11/11 10:24:34;;;;;;;4.15;3.75;;;22.50;87.70;;;;;;4993094;28;20247;-71
2022/11/11 10:27:06;;;;;;;5.32;3.40;;;22.00;85.90;;;;;;4994512;28;20238;-71
2022/11/11 10:29:43;;;;;;;4.05;3.03;;;21.50;88.40;;;;;;4994452;28;20250;-71
2022/11/11 10:32:43;;;;;;;3.55;3.17;;;20.90;89.30;;;;;;4993857;28;20232;-72
2022/11/11 10:35:22;;;;;;;3.40;3.10;;;21.30;90.10;;;;;;4974181;28;20219;-72
2022/11/11 10:37:57;;;;;;;3.00;2.80;;;22.00;88.70;;;;;;4974931;28;20552;-72
2022/11/11 10:40:37;;;;;;;3.90;2.80;;;21.70;89.30;;;;;;4975039;28;20164;-70
2022/11/11 10:43:03;;;;;;;2.80;2.60;;;21.40;88.20;;;;;;4975001;28;20203;-70
2022/11/11 10:45:45;;;;;;;3.13;2.92;;;21.30;89.70;;;;;;4974241;28;20623;-70
2022/11/11 10:48:16;;;;;;;3.30;3.00;;;21.40;88.60;;;;;;4974505;28;20176;-70
2022/11/11 10:50:55;;;;;;;2.85;2.65;;;21.10;89.40;;;;;;4974629;28;20227;-70
2022/11/11 10:53:27;;;;;;;4.55;3.40;;;20.90;90.60;;;;;;4974198;28;20206;-71
2022/11/11 10:56:01;;;;;;;4.38;3.03;;;21.10;90.50;;;;;;4974258;28;20251;-70
2022/11/11 10:58:42;;;;;;;3.33;2.92;;;20.90;89.90;;;;;;4974330;28;20203;-71
2022/11/11 11:01:14;;;;;;;3.00;2.53;;;20.90;90.40;;;;;;4973630;28;20251;-72
2022/11/11 11:03:44;;;;;;;7.45;5.65;;;20.10;90.70;;;;;;4973186;28;20262;-70
2022/11/11 11:06:19;;;;;;;4.57;4.18;;;20.20;92.70;;;;;;4973014;28;20204;-70
2022/11/11 11:08:54;;;;;;;4.38;4.00;;;20.70;91.70;;;;;;4974258;28;20246;-71
2022/11/11 11:11:28;;;;;;;7.30;4.30;;;21.40;90.50;;;;;;4973925;28;20175;-71
2022/11/11 11:14:04;;;;;;;4.10;3.70;;;21.80;88.70;;;;;;4974109;28;20168;-70
2022/11/11 11:16:36;;;;;;;4.55;3.08;;;21.40;89.30;;;;;;4973819;28;20254;-69
2022/11/11 11:19:17;;;;;;;3.92;2.65;;;20.70;91.80;;;;;;4973805;28;20632;-69
2022/11/11 11:21:54;;;;;;;3.15;2.95;;;20.20;91.30;;;;;;4973702;28;20636;-70
2022/11/11 11:24:37;;;;;;;3.00;2.70;;;19.90;92.50;;;;;;4973882;28;20231;-69
2022/11/11 11:27:10;;;;;;;2.70;2.50;;;19.80;93.20;;;;;;4974490;28;20204;-69
2022/11/11 11:29:38;;;;;;;2.97;2.40;;;19.30;94.20;;;;;;4974021;28;20160;-70
2022/11/11 11:32:29;;;;;;;2.80;2.60;;;19.70;94.40;;;;;;4973921;28;20175;-70
2022/11/11 11:34:56;;;;;;;2.70;2.50;;;19.70;94.00;;;;;;4985685;28;20309;-70
2022/11/11 11:37:24;;;;;;;3.42;2.80;;;20.00;93.90;;;;;;4993066;28;20167;-69
2022/11/11 11:40:10;;;;;;;4.07;2.60;;;20.00;93.70;;;;;;4993129;28;20171;-69
2022/11/11 11:42:38;;;;;;;2.40;2.30;;;20.40;93.00;;;;;;4992938;28;20547;-68
2022/11/11 11:45:22;;;;;;;2.20;2.10;;;19.70;93.90;;;;;;4993040;28;20167;-69
2022/11/11 11:48:26;;;;;;;2.30;2.10;;;19.40;94.70;;;;;;4993188;28;20584;-69
2022/11/11 11:51:19;;;;;;;4.45;2.50;;;18.70;96.50;;;;;;4992406;28;20195;-68
2022/11/11 11:54:05;;;;;;;4.82;2.35;;;18.80;97.20;;;;;;4993339;28;20175;-69
2022/11/11 11:56:51;;;;;;;3.83;3.00;;;18.30;97.30;;;;;;4993166;28;20171;-69
2022/11/11 11:59:25;;;;;;;2.85;2.42;;;18.20;98.60;;;;;;4992070;28;20647;-69
2022/11/11 12:01:53;;;;;;;2.60;2.38;;;18.50;98.00;;;;;;4993295;28;20175;-69
2022/11/11 12:04:37;;;;;;;2.65;2.45;;;18.10;99.00;;;;;;4993284;28;20263;-69
2022/11/11 12:07:29;;;;;;;4.13;2.70;;;18.60;99.10;;;;;;4992828;28;20217;-69
2022/11/11 12:10:11;;;;;;;5.38;2.50;;;18.40;99.30;;;;;;4993102;28;20194;-70
2022/11/11 12:13:06;;;;;;;5.55;2.58;;;19.10;98.10;;;;;;4992995;28;20190;-69
2022/11/11 12:16:10;;;;;;;5.13;2.88;;;19.30;97.20;;;;;;4971099;28;20180;-70
2022/11/11 12:18:57;;;;;;;3.20;2.63;;;19.30;96.50;;;;;;4895111;29;20647;-70
2022/11/11 12:21:28;;;;;;;3.28;2.97;;;18.70;97.50;;;;;;4895413;29;20183;-69
2022/11/11 12:24:28;;;;;;;3.28;2.88;;;18.20;98.90;;;;;;4895327;29;20194;-69
2022/11/11 12:27:03;;;;;;;3.58;2.70;;;18.20;98.90;;;;;;4839064;29;20270;-69
2022/11/11 12:29:53;;;;;;;2.80;2.60;;;17.70;99.90;;;;;;4839054;29;20373;-69
2022/11/11 12:32:30;;;;;;;2.97;2.78;;;17.00;99.90;;;;;;4837356;29;20323;-69
2022/11/11 12:35:18;;;;;;;2.80;2.60;;;17.00;99.90;;;;;;4839619;29;20228;-68
2022/11/11 12:38:05;;;;;;;2.90;2.70;;;17.00;99.90;;;;;;4839116;29;20223;-70
2022/11/11 12:41:02;;;;;;;5.97;3.03;;;16.90;99.90;;;;;;4839077;29;20296;-69
2022/11/11 12:43:48;;;;;;;4.57;2.77;;;16.70;99.90;;;;;;4838445;29;20193;-69
2022/11/11 12:46:28;;;;;;;3.97;2.90;;;16.70;99.90;;;;;;4839562;29;20226;-70
2022/11/11 12:49:12;;;;;;;5.47;3.87;;;16.80;99.90;;;;;;4841822;29;20725;-69
2022/11/11 12:51:43;;;;;;;2.60;2.40;;;16.90;99.90;;;;;;4844745;29;20187;-69
2022/11/11 12:54:14;;;;;;;3.53;3.20;;;17.00;99.90;;;;;;4890105;29;20190;-69
2022/11/11 12:57:22;;;;;;;6.10;3.60;;;16.80;99.90;;;;;;4916686;29;20281;-69
2022/11/11 12:59:57;;;;;;;3.93;2.97;;;16.70;99.90;;;;;;4900958;29;20213;-70
2022/11/11 13:03:00;;;;;;;3.83;3.40;;;16.80;99.90;;;;;;4925958;28;20174;-69
2022/11/11 13:06:00;;;;;;;3.57;2.80;;;16.90;99.90;;;;;;4995628;28;20175;-68
2022/11/11 13:08:27;;;;;;;3.90;3.47;;;17.00;99.90;;;;;;4995637;28;20545;-68
2022/11/11 13:11:04;;;;;;;4.27;3.27;;;17.20;99.90;;;;;;4995802;28;20214;-69
2022/11/11 13:14:01;;;;;;;4.00;3.60;;;17.20;99.90;;;;;;4995372;28;20302;-68
2022/11/11 13:16:27;;;;;;;4.17;2.80;;;17.10;99.90;;;;;;4995870;28;20171;-69
2022/11/11 13:18:56;;;;;;;4.73;3.10;;;17.00;99.90;;;;;;4994380;28;20338;-69
2022/11/11 13:21:42;;;;;;;4.63;3.37;;;16.80;99.90;;;;;;4994050;28;20202;-69
2022/11/11 13:24:12;;;;;;;5.27;3.20;;;16.80;99.90;;;;;;4994596;28;20190;-69
2022/11/11 13:26:48;;;;;;;3.60;3.03;;;16.80;99.90;;;;;;4994884;28;20211;-69
2022/11/11 13:29:48;;;;;;;5.53;3.40;;;16.70;99.90;;;;;;4995886;28;20211;-69
2022/11/11 13:32:19;;;;;;;2.90;2.70;;;16.80;99.90;;;;;;4995932;28;20206;-69
2022/11/11 13:34:45;;;;;;;3.40;3.10;;;16.70;99.90;;;;;;4995190;28;20207;-69
2022/11/11 13:37:35;;;;;;;5.93;3.47;;;16.50;99.90;;;;;;4995517;28;20639;-68
2022/11/11 13:40:06;;;;;;;5.03;3.20;;;16.60;99.90;;;;;;4995135;28;20171;-69
2022/11/11 13:42:52;;;;;;;5.83;3.30;;;16.40;99.90;;;;;;4994386;28;20207;-70
2022/11/11 13:45:29;;;;;;;4.93;3.50;;;16.30;99.90;;;;;;4994814;28;20175;-69
2022/11/11 13:47:55;;;;;;;4.00;3.00;;;16.30;99.90;;;;;;4994975;28;20171;-69
2022/11/11 13:50:21;;;;;;;3.93;2.70;;;16.30;99.90;;;;;;4994706;28;20198;-69
2022/11/11 13:53:04;;;;;;;4.27;3.10;;;16.20;99.90;;;;;;4995151;28;20647;-69
2022/11/11 13:55:33;;;;;;;2.80;2.50;;;16.10;99.90;;;;;;4994582;28;20186;-69
2022/11/11 13:58:00;;;;;;;4.73;2.87;;;16.00;99.90;;;;;;4994868;28;20167;-69
2022/11/11 14:00:29;;;;;;;3.97;2.67;;;15.80;99.90;;;;;;4994443;28;20168;-69
2022/11/11 14:03:20;;;;;;;3.57;2.60;;;15.80;99.90;;;;;;4994679;28;20182;-69
2022/11/11 14:05:45;;;;;;;4.57;2.57;;;15.70;99.90;;;;;;4993598;28;20564;-69
2022/11/11 14:08:45;;;;;;;3.83;2.67;;;15.70;99.90;;;;;;4993262;28;20202;-69
2022/11/11 14:11:25;;;;;;;2.90;2.50;;;15.60;99.90;;;;;;4994334;28;20179;-68
2022/11/11 14:13:55;;;;;;;4.43;2.80;;;15.60;99.90;;;;;;4994747;28;20171;-68